Stolford, United Kingdom

01:52 AM BST ar Mai 28, 2017 (GMT +0100)
Stockland Bristol, Somerset, UK | | Change Station

Elev 20 ft 51.19 °N, 3.08 °W | Updated 2 minutes ago

Cymylog Yn Rhannol
Cymylog Yn Rhannol
51.1 °F
Feels Like 51.1 °F
N
0.0
Gwynt Cyfnewidiol Gwynt from De
Gusts 0.0 mph

Heddiw
High -- | Low -- °F
--% Chance of Precip.
Yesterday
High -- | Low -- °F
Precip. -- mod
Gwasgedd 30.06 mod
Gwelededd 6.2 Milltiroedd
Clouds Cymylog 1000 ft
Gwlithbwynt 49 °F
Lleithder 94%
Rainfall 0.00 mod
Snow Depth Not available.
5:05 AM 9:14 PM
Waxing Crescent, 7% visible
METAR EGFF 280020Z AUTO 27009KT 9999 OVC010 13/12 Q1018
Gwasgedd 30.06 mod
Gwelededd 6.2 Milltiroedd
Clouds Cymylog 1000 ft
Gwlithbwynt 49 °F
Lleithder 94%
Rainfall 0.00 mod
Snow Depth Not available.
5:05 AM 9:14 PM
Waxing Crescent, 7% visible
METAR EGFF 280020Z AUTO 27009KT 9999 OVC010 13/12 Q1018

Get Severe Weather Alerts

Thanks for signing up!

Be on the lookout for a verification email in your inbox.

You'll start receiving the daily forecast at 6 AM.

×

10-Day Weather Forecast

×

Almanac

Astronomy

May. 28, 2017 Rise Set
Actual Time
Civil Twilight
Nautical Twilight
Astronomical Twilight
Moon
Length Of Visible Light
Length of Day
Tomorrow will be .
, % of the Moon is Illuminated

Today's Extremes

Country Highs Country Lows

Community

WunderPhotos

Category 6

Welcome to Category 6. This is the collective home for Weather Underground's featured writeups by Dr. Jeff Masters (right), Bob Henson (left), Chris Burt, and other regular contributors.

Nearby

Air Quality

  Air Quality AQ Index Pollutant
Not available.

Snow Depth

Station Depth Elevation

Earthquake Activity

City Distance Mag. Time & Date
Minimum magnitude displayed is 2.5.

Coastal Water Temperatures

Lle Tymheredd

Stations

Nearby Weather Stations

Station Location Temp Oerfel Gwynt Gwlithbwynt Lleithder Gwynt Precip. Elev Diweddarwyd Type